sensor_id;sensor_type;location;lat;lon;timestamp;temperature;humidity
41722;DHT22;27407;24.142;-110.310;2023-03-16T00:01:16;35.40;34.70
41722;DHT22;27407;24.142;-110.310;2023-03-16T00:06:32;38.10;36.60
41722;DHT22;27407;24.142;-110.310;2023-03-16T00:08:59;38.30;37.30
41722;DHT22;27407;24.142;-110.310;2023-03-16T00:11:26;38.80;38.20
41722;DHT22;27407;24.142;-110.310;2023-03-16T00:13:54;39.70;39.40
41722;DHT22;27407;24.142;-110.310;2023-03-16T00:16:24;39.20;38.70
41722;DHT22;27407;24.142;-110.310;2023-03-16T00:19:05;37.80;37.10
41722;DHT22;27407;24.142;-110.310;2023-03-16T00:24:05;38.90;37.90
41722;DHT22;27407;24.142;-110.310;2023-03-16T00:26:37;38.70;36.40
41722;DHT22;27407;24.142;-110.310;2023-03-16T00:29:13;38.60;36.30
41722;DHT22;27407;24.142;-110.310;2023-03-16T00:31:41;38.70;37.40
41722;DHT22;27407;24.142;-110.310;2023-03-16T00:34:12;40.20;39.50
41722;DHT22;27407;24.142;-110.310;2023-03-16T00:39:09;38.10;36.30
41722;DHT22;27407;24.142;-110.310;2023-03-16T00:41:37;38.00;36.60
41722;DHT22;27407;24.142;-110.310;2023-03-16T00:44:07;37.70;36.90
41722;DHT22;27407;24.142;-110.310;2023-03-16T00:46:34;36.20;37.90
41722;DHT22;27407;24.142;-110.310;2023-03-16T00:49:04;37.70;37.10
41722;DHT22;27407;24.142;-110.310;2023-03-16T00:51:35;33.70;36.70
41722;DHT22;27407;24.142;-110.310;2023-03-16T00:54:05;36.40;37.50
41722;DHT22;27407;24.142;-110.310;2023-03-16T00:56:31;34.70;37.80
41722;DHT22;27407;24.142;-110.310;2023-03-16T00:58:59;36.70;37.80
41722;DHT22;27407;24.142;-110.310;2023-03-16T01:01:25;36.50;39.50
41722;DHT22;27407;24.142;-110.310;2023-03-16T01:04:03;40.50;41.60
41722;DHT22;27407;24.142;-110.310;2023-03-16T01:06:30;35.10;38.90
41722;DHT22;27407;24.142;-110.310;2023-03-16T01:08:57;34.70;39.20
41722;DHT22;27407;24.142;-110.310;2023-03-16T01:11:23;33.00;39.80
41722;DHT22;27407;24.142;-110.310;2023-03-16T01:16:52;32.70;54.80
41722;DHT22;27407;24.142;-110.310;2023-03-16T01:19:36;31.40;65.80
41722;DHT22;27407;24.142;-110.310;2023-03-16T01:22:05;31.10;69.20
41722;DHT22;27407;24.142;-110.310;2023-03-16T01:24:32;30.50;71.60
41722;DHT22;27407;24.142;-110.310;2023-03-16T01:27:00;30.10;72.90
41722;DHT22;27407;24.142;-110.310;2023-03-16T01:29:27;29.60;74.70
41722;DHT22;27407;24.142;-110.310;2023-03-16T01:31:53;27.40;75.10
41722;DHT22;27407;24.142;-110.310;2023-03-16T01:34:21;29.10;76.40
41722;DHT22;27407;24.142;-110.310;2023-03-16T01:36:49;28.70;76.80
41722;DHT22;27407;24.142;-110.310;2023-03-16T01:39:19;28.40;77.30
41722;DHT22;27407;24.142;-110.310;2023-03-16T01:41:46;28.20;78.30
41722;DHT22;27407;24.142;-110.310;2023-03-16T01:44:17;28.00;79.20
41722;DHT22;27407;24.142;-110.310;2023-03-16T01:46:45;27.80;81.10
41722;DHT22;27407;24.142;-110.310;2023-03-16T01:51:52;27.20;83.10
41722;DHT22;27407;24.142;-110.310;2023-03-16T01:54:42;27.40;83.90
41722;DHT22;27407;24.142;-110.310;2023-03-16T01:57:26;27.20;84.60
41722;DHT22;27407;24.142;-110.310;2023-03-16T02:00:05;28.00;85.90
41722;DHT22;27407;24.142;-110.310;2023-03-16T02:02:39;27.10;86.20
41722;DHT22;27407;24.142;-110.310;2023-03-16T02:08:22;26.60;88.50
41722;DHT22;27407;24.142;-110.310;2023-03-16T02:13:32;26.80;89.80
41722;DHT22;27407;24.142;-110.310;2023-03-16T02:16:06;26.60;90.40
41722;DHT22;27407;24.142;-110.310;2023-03-16T02:18:34;26.60;90.80
41722;DHT22;27407;24.142;-110.310;2023-03-16T02:21:50;26.40;91.10
41722;DHT22;27407;24.142;-110.310;2023-03-16T02:23:59;26.40;91.60
41722;DHT22;27407;24.142;-110.310;2023-03-16T02:31:30;26.20;91.70
41722;DHT22;27407;24.142;-110.310;2023-03-16T02:33:57;26.20;92.10
41722;DHT22;27407;24.142;-110.310;2023-03-16T02:36:24;25.90;92.10
41722;DHT22;27407;24.142;-110.310;2023-03-16T02:41:19;26.00;91.40
41722;DHT22;27407;24.142;-110.310;2023-03-16T02:43:53;26.60;91.00
41722;DHT22;27407;24.142;-110.310;2023-03-16T02:46:24;25.90;90.10
41722;DHT22;27407;24.142;-110.310;2023-03-16T02:49:24;27.40;90.30
41722;DHT22;27407;24.142;-110.310;2023-03-16T02:51:52;26.00;86.60
41722;DHT22;27407;24.142;-110.310;2023-03-16T02:56:46;25.90;85.90
41722;DHT22;27407;24.142;-110.310;2023-03-16T02:59:12;25.70;84.70
41722;DHT22;27407;24.142;-110.310;2023-03-16T03:01:39;25.70;85.10
41722;DHT22;27407;24.142;-110.310;2023-03-16T03:04:07;25.70;82.20
41722;DHT22;27407;24.142;-110.310;2023-03-16T03:06:34;25.70;81.40
41722;DHT22;27407;24.142;-110.310;2023-03-16T03:09:01;25.70;80.50
41722;DHT22;27407;24.142;-110.310;2023-03-16T03:11:29;25.70;80.40
41722;DHT22;27407;24.142;-110.310;2023-03-16T03:13:56;25.70;79.90
41722;DHT22;27407;24.142;-110.310;2023-03-16T03:16:23;25.80;77.50
41722;DHT22;27407;24.142;-110.310;2023-03-16T03:18:50;25.90;77.30
41722;DHT22;27407;24.142;-110.310;2023-03-16T03:21:18;25.80;77.40
41722;DHT22;27407;24.142;-110.310;2023-03-16T03:26:13;25.90;81.70
41722;DHT22;27407;24.142;-110.310;2023-03-16T03:28:43;25.50;82.10
41722;DHT22;27407;24.142;-110.310;2023-03-16T03:31:19;25.70;83.10
41722;DHT22;27407;24.142;-110.310;2023-03-16T03:33:46;26.70;84.40
41722;DHT22;27407;24.142;-110.310;2023-03-16T03:36:13;25.80;84.40
41722;DHT22;27407;24.142;-110.310;2023-03-16T03:38:40;25.80;84.80
41722;DHT22;27407;24.142;-110.310;2023-03-16T03:41:07;25.70;85.10
41722;DHT22;27407;24.142;-110.310;2023-03-16T03:43:34;25.40;85.40
41722;DHT22;27407;24.142;-110.310;2023-03-16T03:46:02;26.40;86.90
41722;DHT22;27407;24.142;-110.310;2023-03-16T03:48:29;25.60;86.80
41722;DHT22;27407;24.142;-110.310;2023-03-16T03:50:55;25.40;87.20
41722;DHT22;27407;24.142;-110.310;2023-03-16T03:53:22;25.20;87.60
41722;DHT22;27407;24.142;-110.310;2023-03-16T03:55:49;24.00;87.70
41722;DHT22;27407;24.142;-110.310;2023-03-16T03:58:16;24.60;88.70
41722;DHT22;27407;24.142;-110.310;2023-03-16T04:03:09;24.70;90.40
41722;DHT22;27407;24.142;-110.310;2023-03-16T04:05:36;24.50;90.60
41722;DHT22;27407;24.142;-110.310;2023-03-16T04:08:03;24.40;90.70
41722;DHT22;27407;24.142;-110.310;2023-03-16T04:10:30;24.50;90.80
41722;DHT22;27407;24.142;-110.310;2023-03-16T04:12:57;24.60;90.70
41722;DHT22;27407;24.142;-110.310;2023-03-16T04:15:24;24.40;90.80
41722;DHT22;27407;24.142;-110.310;2023-03-16T04:17:54;24.30;90.90
41722;DHT22;27407;24.142;-110.310;2023-03-16T04:22:49;24.40;92.90
41722;DHT22;27407;24.142;-110.310;2023-03-16T04:25:24;24.40;93.60
41722;DHT22;27407;24.142;-110.310;2023-03-16T04:27:52;24.60;94.10
41722;DHT22;27407;24.142;-110.310;2023-03-16T04:32:45;24.30;95.40
41722;DHT22;27407;24.142;-110.310;2023-03-16T04:37:40;23.40;97.30
41722;DHT22;27407;24.142;-110.310;2023-03-16T04:40:07;24.20;98.40
41722;DHT22;27407;24.142;-110.310;2023-03-16T04:45:07;24.10;99.90
41722;DHT22;27407;24.142;-110.310;2023-03-16T04:50:03;24.40;99.90
41722;DHT22;27407;24.142;-110.310;2023-03-16T04:52:31;24.00;99.90
41722;DHT22;27407;24.142;-110.310;2023-03-16T04:54:58;23.90;99.90
41722;DHT22;27407;24.142;-110.310;2023-03-16T04:59:51;23.70;99.90
41722;DHT22;27407;24.142;-110.310;2023-03-16T05:09:39;23.20;99.90
41722;DHT22;27407;24.142;-110.310;2023-03-16T05:12:06;22.30;99.90
41722;DHT22;27407;24.142;-110.310;2023-03-16T05:14:33;23.20;99.90
41722;DHT22;27407;24.142;-110.310;2023-03-16T05:17:03;22.70;99.90
41722;DHT22;27407;24.142;-110.310;2023-03-16T05:21:57;23.10;99.90
41722;DHT22;27407;24.142;-110.310;2023-03-16T05:24:23;23.00;99.90
41722;DHT22;27407;24.142;-110.310;2023-03-16T05:34:13;22.30;99.90
41722;DHT22;27407;24.142;-110.310;2023-03-16T05:53:48;22.10;99.90
41722;DHT22;27407;24.142;-110.310;2023-03-16T05:56:14;22.20;99.90
41722;DHT22;27407;24.142;-110.310;2023-03-16T06:01:08;22.00;99.90
41722;DHT22;27407;24.142;-110.310;2023-03-16T06:08:32;22.00;99.90
41722;DHT22;27407;24.142;-110.310;2023-03-16T06:18:22;21.80;99.90
41722;DHT22;27407;24.142;-110.310;2023-03-16T06:23:15;21.60;99.90
41722;DHT22;27407;24.142;-110.310;2023-03-16T06:25:46;21.70;99.90
41722;DHT22;27407;24.142;-110.310;2023-03-16T06:28:21;21.60;99.90
41722;DHT22;27407;24.142;-110.310;2023-03-16T06:40:35;21.70;99.90
41722;DHT22;27407;24.142;-110.310;2023-03-16T06:55:19;21.50;99.90
41722;DHT22;27407;24.142;-110.310;2023-03-16T07:00:21;21.50;99.90
41722;DHT22;27407;24.142;-110.310;2023-03-16T07:02:56;21.50;99.90
41722;DHT22;27407;24.142;-110.310;2023-03-16T07:05:31;21.40;99.90
41722;DHT22;27407;24.142;-110.310;2023-03-16T07:08:18;21.40;99.90
41722;DHT22;27407;24.142;-110.310;2023-03-16T07:10:51;20.60;99.90
41722;DHT22;27407;24.142;-110.310;2023-03-16T07:13:20;21.20;99.90
41722;DHT22;27407;24.142;-110.310;2023-03-16T07:15:50;21.50;99.90
41722;DHT22;27407;24.142;-110.310;2023-03-16T07:18:20;21.50;99.90
41722;DHT22;27407;24.142;-110.310;2023-03-16T07:20:53;20.80;99.90
41722;DHT22;27407;24.142;-110.310;2023-03-16T07:23:49;21.50;99.90
41722;DHT22;27407;24.142;-110.310;2023-03-16T07:26:17;21.60;99.90
41722;DHT22;27407;24.142;-110.310;2023-03-16T07:28:53;21.40;99.90
41722;DHT22;27407;24.142;-110.310;2023-03-16T07:31:42;21.80;99.90
41722;DHT22;27407;24.142;-110.310;2023-03-16T07:34:11;21.50;99.90
41722;DHT22;27407;24.142;-110.310;2023-03-16T07:39:36;21.50;99.90
41722;DHT22;27407;24.142;-110.310;2023-03-16T07:42:02;21.50;99.90
41722;DHT22;27407;24.142;-110.310;2023-03-16T07:44:29;21.50;99.90
41722;DHT22;27407;24.142;-110.310;2023-03-16T07:47:11;21.50;99.90
41722;DHT22;27407;24.142;-110.310;2023-03-16T07:49:38;22.20;99.90
41722;DHT22;27407;24.142;-110.310;2023-03-16T07:52:06;21.60;99.90
41722;DHT22;27407;24.142;-110.310;2023-03-16T07:54:33;21.60;99.90
41722;DHT22;27407;24.142;-110.310;2023-03-16T07:57:03;22.20;99.90
41722;DHT22;27407;24.142;-110.310;2023-03-16T08:01:56;21.40;99.90
41722;DHT22;27407;24.142;-110.310;2023-03-16T08:04:23;21.40;99.90
41722;DHT22;27407;24.142;-110.310;2023-03-16T08:06:50;22.80;99.90
41722;DHT22;27407;24.142;-110.310;2023-03-16T08:09:30;21.30;99.90
41722;DHT22;27407;24.142;-110.310;2023-03-16T08:11:56;21.00;99.90
41722;DHT22;27407;24.142;-110.310;2023-03-16T08:16:50;20.80;99.90
41722;DHT22;27407;24.142;-110.310;2023-03-16T08:21:45;21.30;99.90
41722;DHT22;27407;24.142;-110.310;2023-03-16T08:34:00;20.50;99.90
41722;DHT22;27407;24.142;-110.310;2023-03-16T08:38:54;20.60;99.90
41722;DHT22;27407;24.142;-110.310;2023-03-16T08:43:48;20.60;99.90
41722;DHT22;27407;24.142;-110.310;2023-03-16T08:48:42;20.00;99.90
41722;DHT22;27407;24.142;-110.310;2023-03-16T08:51:10;20.50;99.90
41722;DHT22;27407;24.142;-110.310;2023-03-16T08:56:05;20.30;99.90
41722;DHT22;27407;24.142;-110.310;2023-03-16T08:58:33;20.90;99.90
41722;DHT22;27407;24.142;-110.310;2023-03-16T09:01:01;20.40;99.90
41722;DHT22;27407;24.142;-110.310;2023-03-16T09:06:04;20.30;99.90
41722;DHT22;27407;24.142;-110.310;2023-03-16T09:08:32;21.50;99.90
41722;DHT22;27407;24.142;-110.310;2023-03-16T09:11:00;20.40;99.90
41722;DHT22;27407;24.142;-110.310;2023-03-16T09:13:28;20.40;99.90
41722;DHT22;27407;24.142;-110.310;2023-03-16T09:15:55;20.60;99.90
41722;DHT22;27407;24.142;-110.310;2023-03-16T09:18:23;20.10;99.90
41722;DHT22;27407;24.142;-110.310;2023-03-16T09:20:56;20.30;99.90
41722;DHT22;27407;24.142;-110.310;2023-03-16T09:23:24;20.30;99.90
41722;DHT22;27407;24.142;-110.310;2023-03-16T09:25:51;20.30;99.90
41722;DHT22;27407;24.142;-110.310;2023-03-16T09:28:19;19.40;99.90
41722;DHT22;27407;24.142;-110.310;2023-03-16T09:40:33;20.00;99.90
41722;DHT22;27407;24.142;-110.310;2023-03-16T09:48:27;19.70;99.90
41722;DHT22;27407;24.142;-110.310;2023-03-16T09:50:56;19.70;99.90
41722;DHT22;27407;24.142;-110.310;2023-03-16T09:53:37;19.60;99.90
41722;DHT22;27407;24.142;-110.310;2023-03-16T09:56:21;19.60;99.90
41722;DHT22;27407;24.142;-110.310;2023-03-16T09:58:53;19.60;99.90
41722;DHT22;27407;24.142;-110.310;2023-03-16T10:04:25;19.60;99.90
41722;DHT22;27407;24.142;-110.310;2023-03-16T10:07:12;19.50;99.90
41722;DHT22;27407;24.142;-110.310;2023-03-16T10:12:28;19.50;99.90
41722;DHT22;27407;24.142;-110.310;2023-03-16T10:15:03;19.30;99.90
41722;DHT22;27407;24.142;-110.310;2023-03-16T10:17:42;19.30;99.90
41722;DHT22;27407;24.142;-110.310;2023-03-16T10:20:15;18.40;99.90
41722;DHT22;27407;24.142;-110.310;2023-03-16T10:22:44;19.30;99.90
41722;DHT22;27407;24.142;-110.310;2023-03-16T10:25:30;19.10;99.90
41722;DHT22;27407;24.142;-110.310;2023-03-16T10:30:32;19.10;99.90
41722;DHT22;27407;24.142;-110.310;2023-03-16T10:33:10;19.10;99.90
41722;DHT22;27407;24.142;-110.310;2023-03-16T10:40:56;19.20;99.90
41722;DHT22;27407;24.142;-110.310;2023-03-16T10:43:26;19.30;99.90
41722;DHT22;27407;24.142;-110.310;2023-03-16T10:45:59;19.20;99.90
41722;DHT22;27407;24.142;-110.310;2023-03-16T10:50:55;19.30;99.90
41722;DHT22;27407;24.142;-110.310;2023-03-16T10:53:27;19.10;99.90
41722;DHT22;27407;24.142;-110.310;2023-03-16T10:56:00;19.20;99.90
41722;DHT22;27407;24.142;-110.310;2023-03-16T10:58:32;19.00;99.90
41722;DHT22;27407;24.142;-110.310;2023-03-16T11:03:41;19.30;99.90
41722;DHT22;27407;24.142;-110.310;2023-03-16T11:06:23;19.00;99.90
41722;DHT22;27407;24.142;-110.310;2023-03-16T11:08:52;19.30;99.90
41722;DHT22;27407;24.142;-110.310;2023-03-16T11:11:29;18.70;99.90
41722;DHT22;27407;24.142;-110.310;2023-03-16T11:13:59;19.00;99.90
41722;DHT22;27407;24.142;-110.310;2023-03-16T11:19:15;18.60;99.90
41722;DHT22;27407;24.142;-110.310;2023-03-16T11:24:56;18.40;99.90
41722;DHT22;27407;24.142;-110.310;2023-03-16T11:32:56;17.90;99.90
41722;DHT22;27407;24.142;-110.310;2023-03-16T11:44:48;18.10;99.90
41722;DHT22;27407;24.142;-110.310;2023-03-16T11:50:16;18.50;99.90
41722;DHT22;27407;24.142;-110.310;2023-03-16T12:11:29;17.90;99.90
41722;DHT22;27407;24.142;-110.310;2023-03-16T12:14:26;17.80;99.90
41722;DHT22;27407;24.142;-110.310;2023-03-16T12:17:45;17.90;99.90
41722;DHT22;27407;24.142;-110.310;2023-03-16T12:21:03;17.50;99.90
41722;DHT22;27407;24.142;-110.310;2023-03-16T12:23:17;17.60;99.90
41722;DHT22;27407;24.142;-110.310;2023-03-16T12:25:48;17.50;99.90
41722;DHT22;27407;24.142;-110.310;2023-03-16T12:28:27;18.20;99.90
41722;DHT22;27407;24.142;-110.310;2023-03-16T12:46:59;17.50;99.90
41722;DHT22;27407;24.142;-110.310;2023-03-16T12:49:34;17.50;99.90
41722;DHT22;27407;24.142;-110.310;2023-03-16T12:52:08;17.60;99.90
41722;DHT22;27407;24.142;-110.310;2023-03-16T12:57:07;17.70;99.90
41722;DHT22;27407;24.142;-110.310;2023-03-16T13:02:03;15.70;99.90
41722;DHT22;27407;24.142;-110.310;2023-03-16T13:04:39;17.50;99.90
41722;DHT22;27407;24.142;-110.310;2023-03-16T13:07:18;17.40;99.90
41722;DHT22;27407;24.142;-110.310;2023-03-16T13:10:02;17.60;99.90
41722;DHT22;27407;24.142;-110.310;2023-03-16T13:12:35;17.40;99.90
41722;DHT22;27407;24.142;-110.310;2023-03-16T13:20:31;17.50;99.90
41722;DHT22;27407;24.142;-110.310;2023-03-16T13:26:12;17.30;99.90
41722;DHT22;27407;24.142;-110.310;2023-03-16T13:28:43;17.40;99.90
41722;DHT22;27407;24.142;-110.310;2023-03-16T13:31:36;15.30;99.90
41722;DHT22;27407;24.142;-110.310;2023-03-16T13:34:06;17.20;99.90
41722;DHT22;27407;24.142;-110.310;2023-03-16T13:36:37;17.10;99.90
41722;DHT22;27407;24.142;-110.310;2023-03-16T13:39:15;17.10;99.90
41722;DHT22;27407;24.142;-110.310;2023-03-16T13:42:08;15.50;99.90
41722;DHT22;27407;24.142;-110.310;2023-03-16T13:44:40;17.20;99.90
41722;DHT22;27407;24.142;-110.310;2023-03-16T13:47:16;17.30;99.90
41722;DHT22;27407;24.142;-110.310;2023-03-16T13:49:57;17.40;99.90
41722;DHT22;27407;24.142;-110.310;2023-03-16T13:52:32;17.40;99.90
41722;DHT22;27407;24.142;-110.310;2023-03-16T13:55:09;17.40;99.90
41722;DHT22;27407;24.142;-110.310;2023-03-16T13:57:41;17.00;99.90
41722;DHT22;27407;24.142;-110.310;2023-03-16T14:00:24;17.60;99.90
41722;DHT22;27407;24.142;-110.310;2023-03-16T14:02:54;16.60;99.90
41722;DHT22;27407;24.142;-110.310;2023-03-16T14:05:24;17.90;99.90
41722;DHT22;27407;24.142;-110.310;2023-03-16T14:07:53;17.80;99.90
41722;DHT22;27407;24.142;-110.310;2023-03-16T14:10:26;18.00;99.90
41722;DHT22;27407;24.142;-110.310;2023-03-16T14:16:16;17.10;98.80
41722;DHT22;27407;24.142;-110.310;2023-03-16T14:21:31;18.70;97.70
41722;DHT22;27407;24.142;-110.310;2023-03-16T14:24:06;18.80;96.50
41722;DHT22;27407;24.142;-110.310;2023-03-16T14:26:51;19.00;95.90
41722;DHT22;27407;24.142;-110.310;2023-03-16T14:32:27;19.30;94.00
41722;DHT22;27407;24.142;-110.310;2023-03-16T14:35:14;19.50;93.60
41722;DHT22;27407;24.142;-110.310;2023-03-16T14:37:41;18.00;92.90
41722;DHT22;27407;24.142;-110.310;2023-03-16T14:40:29;20.00;93.70
41722;DHT22;27407;24.142;-110.310;2023-03-16T14:42:59;20.10;92.40
41722;DHT22;27407;24.142;-110.310;2023-03-16T14:45:32;20.40;91.00
41722;DHT22;27407;24.142;-110.310;2023-03-16T14:48:05;20.50;91.60
41722;DHT22;27407;24.142;-110.310;2023-03-16T14:50:34;20.80;92.90
41722;DHT22;27407;24.142;-110.310;2023-03-16T14:53:05;20.90;93.70
41722;DHT22;27407;24.142;-110.310;2023-03-16T15:00:29;21.10;94.30
41722;DHT22;27407;24.142;-110.310;2023-03-16T15:03:05;21.20;93.40
41722;DHT22;27407;24.142;-110.310;2023-03-16T15:05:35;21.30;92.60
41722;DHT22;27407;24.142;-110.310;2023-03-16T15:08:04;21.50;93.10
41722;DHT22;27407;24.142;-110.310;2023-03-16T15:10:32;21.60;91.80
41722;DHT22;27407;24.142;-110.310;2023-03-16T15:13:00;21.50;92.70
41722;DHT22;27407;24.142;-110.310;2023-03-16T15:15:39;21.90;91.40
41722;DHT22;27407;24.142;-110.310;2023-03-16T15:18:07;22.10;91.20
41722;DHT22;27407;24.142;-110.310;2023-03-16T15:20:39;22.20;90.70
41722;DHT22;27407;24.142;-110.310;2023-03-16T15:23:12;23.40;91.00
41722;DHT22;27407;24.142;-110.310;2023-03-16T15:25:45;22.80;90.40
41722;DHT22;27407;24.142;-110.310;2023-03-16T15:28:22;22.70;89.80
41722;DHT22;27407;24.142;-110.310;2023-03-16T15:30:51;22.90;88.80
41722;DHT22;27407;24.142;-110.310;2023-03-16T15:35:47;23.20;88.50
41722;DHT22;27407;24.142;-110.310;2023-03-16T15:38:26;23.30;87.40
41722;DHT22;27407;24.142;-110.310;2023-03-16T15:40:54;24.40;85.60
41722;DHT22;27407;24.142;-110.310;2023-03-16T15:43:26;23.70;84.30
41722;DHT22;27407;24.142;-110.310;2023-03-16T15:45:58;23.90;82.90
41722;DHT22;27407;24.142;-110.310;2023-03-16T15:48:30;25.50;83.20
41722;DHT22;27407;24.142;-110.310;2023-03-16T15:51:07;24.50;83.50
41722;DHT22;27407;24.142;-110.310;2023-03-16T15:56:11;24.90;81.50
41722;DHT22;27407;24.142;-110.310;2023-03-16T15:59:04;25.30;78.80
41722;DHT22;27407;24.142;-110.310;2023-03-16T16:01:39;25.60;77.20
41722;DHT22;27407;24.142;-110.310;2023-03-16T16:04:15;26.00;75.70
41722;DHT22;27407;24.142;-110.310;2023-03-16T16:06:48;26.30;75.10
41722;DHT22;27407;24.142;-110.310;2023-03-16T16:11:44;27.20;74.50
41722;DHT22;27407;24.142;-110.310;2023-03-16T16:14:20;26.90;73.50
41722;DHT22;27407;24.142;-110.310;2023-03-16T16:16:51;27.20;71.70
41722;DHT22;27407;24.142;-110.310;2023-03-16T16:19:19;27.30;71.20
41722;DHT22;27407;24.142;-110.310;2023-03-16T16:21:46;27.40;69.40
41722;DHT22;27407;24.142;-110.310;2023-03-16T16:24:13;27.60;70.10
41722;DHT22;27407;24.142;-110.310;2023-03-16T16:26:44;27.80;69.20
41722;DHT22;27407;24.142;-110.310;2023-03-16T16:29:19;27.50;68.10
41722;DHT22;27407;24.142;-110.310;2023-03-16T16:31:50;28.20;68.40
41722;DHT22;27407;24.142;-110.310;2023-03-16T16:37:09;28.50;68.30
41722;DHT22;27407;24.142;-110.310;2023-03-16T16:39:36;28.60;67.90
41722;DHT22;27407;24.142;-110.310;2023-03-16T16:42:08;26.40;65.20
41722;DHT22;27407;24.142;-110.310;2023-03-16T16:44:50;28.90;66.20
41722;DHT22;27407;24.142;-110.310;2023-03-16T16:47:19;28.90;65.10
41722;DHT22;27407;24.142;-110.310;2023-03-16T16:49:48;29.10;64.60
41722;DHT22;27407;24.142;-110.310;2023-03-16T16:52:17;29.20;63.80
41722;DHT22;27407;24.142;-110.310;2023-03-16T16:54:44;29.00;64.00
41722;DHT22;27407;24.142;-110.310;2023-03-16T16:57:18;29.00;64.00
41722;DHT22;27407;24.142;-110.310;2023-03-16T16:59:49;29.20;65.60
41722;DHT22;27407;24.142;-110.310;2023-03-16T17:05:26;29.30;62.90
41722;DHT22;27407;24.142;-110.310;2023-03-16T17:07:54;29.60;65.10
41722;DHT22;27407;24.142;-110.310;2023-03-16T17:10:37;29.90;62.90
41722;DHT22;27407;24.142;-110.310;2023-03-16T17:13:04;30.10;63.70
41722;DHT22;27407;24.142;-110.310;2023-03-16T17:15:32;29.10;62.00
41722;DHT22;27407;24.142;-110.310;2023-03-16T17:18:17;30.30;61.80
41722;DHT22;27407;24.142;-110.310;2023-03-16T17:20:45;31.70;64.30
41722;DHT22;27407;24.142;-110.310;2023-03-16T17:23:28;30.40;62.40
41722;DHT22;27407;24.142;-110.310;2023-03-16T17:26:00;30.50;61.60
41722;DHT22;27407;24.142;-110.310;2023-03-16T17:28:30;30.60;60.70
41722;DHT22;27407;24.142;-110.310;2023-03-16T17:30:59;30.60;57.90
41722;DHT22;27407;24.142;-110.310;2023-03-16T17:33:26;30.70;57.10
41722;DHT22;27407;24.142;-110.310;2023-03-16T17:35:53;30.90;57.70
41722;DHT22;27407;24.142;-110.310;2023-03-16T17:38:22;30.90;59.10
41722;DHT22;27407;24.142;-110.310;2023-03-16T17:40:51;30.70;59.30
41722;DHT22;27407;24.142;-110.310;2023-03-16T17:43:22;30.80;57.00
41722;DHT22;27407;24.142;-110.310;2023-03-16T17:45:52;31.10;58.10
41722;DHT22;27407;24.142;-110.310;2023-03-16T17:48:21;29.90;57.20
41722;DHT22;27407;24.142;-110.310;2023-03-16T17:50:49;31.20;55.20
41722;DHT22;27407;24.142;-110.310;2023-03-16T17:53:29;31.40;53.40
41722;DHT22;27407;24.142;-110.310;2023-03-16T17:55:59;29.60;52.30
41722;DHT22;27407;24.142;-110.310;2023-03-16T17:58:28;31.30;54.20
41722;DHT22;27407;24.142;-110.310;2023-03-16T18:01:12;31.30;53.70
41722;DHT22;27407;24.142;-110.310;2023-03-16T18:03:44;31.50;55.50
41722;DHT22;27407;24.142;-110.310;2023-03-16T18:06:20;31.80;54.30
41722;DHT22;27407;24.142;-110.310;2023-03-16T18:09:04;31.20;54.70
41722;DHT22;27407;24.142;-110.310;2023-03-16T18:11:44;32.10;55.60
41722;DHT22;27407;24.142;-110.310;2023-03-16T18:14:44;31.70;54.30
41722;DHT22;27407;24.142;-110.310;2023-03-16T18:17:29;31.70;53.70
41722;DHT22;27407;24.142;-110.310;2023-03-16T18:19:56;31.70;53.70
41722;DHT22;27407;24.142;-110.310;2023-03-16T18:22:25;32.30;53.70
41722;DHT22;27407;24.142;-110.310;2023-03-16T18:24:53;32.30;53.70
41722;DHT22;27407;24.142;-110.310;2023-03-16T18:32:27;31.70;53.10
41722;DHT22;27407;24.142;-110.310;2023-03-16T18:34:56;32.20;53.40
41722;DHT22;27407;24.142;-110.310;2023-03-16T18:37:25;32.10;52.80
41722;DHT22;27407;24.142;-110.310;2023-03-16T18:39:55;32.20;54.10
41722;DHT22;27407;24.142;-110.310;2023-03-16T18:42:23;32.20;54.10
41722;DHT22;27407;24.142;-110.310;2023-03-16T18:44:51;32.20;52.90
41722;DHT22;27407;24.142;-110.310;2023-03-16T18:47:21;33.70;52.90
41722;DHT22;27407;24.142;-110.310;2023-03-16T18:49:49;33.00;52.20
41722;DHT22;27407;24.142;-110.310;2023-03-16T18:52:21;31.30;52.00
41722;DHT22;27407;24.142;-110.310;2023-03-16T18:54:53;33.30;53.10
41722;DHT22;27407;24.142;-110.310;2023-03-16T18:57:23;32.30;51.80
41722;DHT22;27407;24.142;-110.310;2023-03-16T18:59:53;31.50;50.50
41722;DHT22;27407;24.142;-110.310;2023-03-16T19:05:20;33.40;50.50
41722;DHT22;27407;24.142;-110.310;2023-03-16T19:07:50;33.70;50.30
41722;DHT22;27407;24.142;-110.310;2023-03-16T19:10:32;33.70;50.50
41722;DHT22;27407;24.142;-110.310;2023-03-16T19:13:01;33.40;51.10
41722;DHT22;27407;24.142;-110.310;2023-03-16T19:15:30;33.40;51.20
41722;DHT22;27407;24.142;-110.310;2023-03-16T19:17:58;33.30;50.80
41722;DHT22;27407;24.142;-110.310;2023-03-16T19:20:46;33.30;51.10
41722;DHT22;27407;24.142;-110.310;2023-03-16T19:23:38;33.70;50.80
41722;DHT22;27407;24.142;-110.310;2023-03-16T19:26:06;34.00;50.60
41722;DHT22;27407;24.142;-110.310;2023-03-16T19:28:36;34.00;51.30
41722;DHT22;27407;24.142;-110.310;2023-03-16T19:31:17;33.60;51.30
41722;DHT22;27407;24.142;-110.310;2023-03-16T19:33:45;33.70;50.80
41722;DHT22;27407;24.142;-110.310;2023-03-16T19:36:24;33.80;51.10
41722;DHT22;27407;24.142;-110.310;2023-03-16T19:38:51;33.80;52.20
41722;DHT22;27407;24.142;-110.310;2023-03-16T19:41:28;34.10;51.10
41722;DHT22;27407;24.142;-110.310;2023-03-16T19:44:16;30.10;48.60
41722;DHT22;27407;24.142;-110.310;2023-03-16T19:49:26;33.90;51.20
41722;DHT22;27407;24.142;-110.310;2023-03-16T19:51:55;33.50;50.80
41722;DHT22;27407;24.142;-110.310;2023-03-16T19:54:24;36.00;52.90
41722;DHT22;27407;24.142;-110.310;2023-03-16T19:56:52;35.80;54.30
41722;DHT22;27407;24.142;-110.310;2023-03-16T19:59:20;33.40;52.10
41722;DHT22;27407;24.142;-110.310;2023-03-16T20:04:17;34.50;51.20
41722;DHT22;27407;24.142;-110.310;2023-03-16T20:06:44;34.90;51.00
41722;DHT22;27407;24.142;-110.310;2023-03-16T20:09:11;35.60;50.20
41722;DHT22;27407;24.142;-110.310;2023-03-16T20:11:38;35.20;51.50
41722;DHT22;27407;24.142;-110.310;2023-03-16T20:14:13;34.20;52.40
41722;DHT22;27407;24.142;-110.310;2023-03-16T20:16:43;35.80;52.20
41722;DHT22;27407;24.142;-110.310;2023-03-16T20:19:13;34.10;52.60